sensor_id;sensor_type;location;lat;lon;timestamp;pressure;altitude;pressure_sealevel;temperature;humidity
77077;BME280;66003;52.286;104.306;2023-02-16T00:01:55;97433.91;;;-7.81;47.69
77077;BME280;66003;52.286;104.306;2023-02-16T00:04:23;97464.06;;;-7.51;47.49
77077;BME280;66003;52.286;104.306;2023-02-16T00:06:50;97455.97;;;-7.38;47.70
77077;BME280;66003;52.286;104.306;2023-02-16T00:09:17;97469.22;;;-7.22;47.26
77077;BME280;66003;52.286;104.306;2023-02-16T00:11:44;97406.53;;;-7.46;46.84
77077;BME280;66003;52.286;104.306;2023-02-16T00:14:49;97458.94;;;-7.14;46.87
77077;BME280;66003;52.286;104.306;2023-02-16T00:17:15;97462.34;;;-7.13;46.71
77077;BME280;66003;52.286;104.306;2023-02-16T00:19:41;97456.22;;;-7.22;46.89
77077;BME280;66003;52.286;104.306;2023-02-16T00:22:08;97447.88;;;-7.25;46.61
77077;BME280;66003;52.286;104.306;2023-02-16T00:24:35;97426.38;;;-7.65;47.22
77077;BME280;66003;52.286;104.306;2023-02-16T00:27:07;97456.81;;;-7.47;48.17
77077;BME280;66003;52.286;104.306;2023-02-16T00:29:36;97471.56;;;-7.48;47.59
77077;BME280;66003;52.286;104.306;2023-02-16T00:32:04;97455.44;;;-7.51;46.64
77077;BME280;66003;52.286;104.306;2023-02-16T00:34:36;97432.94;;;-7.89;48.01
77077;BME280;66003;52.286;104.306;2023-02-16T00:37:05;97447.16;;;-7.84;47.61
77077;BME280;66003;52.286;104.306;2023-02-16T00:39:32;97484.53;;;-7.38;47.07
77077;BME280;66003;52.286;104.306;2023-02-16T00:42:05;97491.09;;;-7.34;46.81
77077;BME280;66003;52.286;104.306;2023-02-16T00:44:49;97491.63;;;-7.40;47.07
77077;BME280;66003;52.286;104.306;2023-02-16T00:47:31;97452.22;;;-7.82;48.20
77077;BME280;66003;52.286;104.306;2023-02-16T00:49:59;97477.28;;;-7.54;46.77
77077;BME280;66003;52.286;104.306;2023-02-16T00:52:35;97495.19;;;-7.41;46.91
77077;BME280;66003;52.286;104.306;2023-02-16T00:55:08;97480.03;;;-7.36;46.96
77077;BME280;66003;52.286;104.306;2023-02-16T00:57:39;97479.06;;;-7.54;47.46
77077;BME280;66003;52.286;104.306;2023-02-16T01:02:43;97491.34;;;-7.28;46.29
77077;BME280;66003;52.286;104.306;2023-02-16T01:05:10;97458.03;;;-7.32;46.28
77077;BME280;66003;52.286;104.306;2023-02-16T01:07:37;97493.59;;;-6.96;46.21
77077;BME280;66003;52.286;104.306;2023-02-16T01:10:22;97500.25;;;-6.83;45.57
77077;BME280;66003;52.286;104.306;2023-02-16T01:13:07;97495.09;;;-6.93;45.17
77077;BME280;66003;52.286;104.306;2023-02-16T01:15:35;97446.16;;;-7.54;46.01
77077;BME280;66003;52.286;104.306;2023-02-16T01:18:01;97455.59;;;-7.53;46.44
77077;BME280;66003;52.286;104.306;2023-02-16T01:20:27;97492.38;;;-7.01;45.75
77077;BME280;66003;52.286;104.306;2023-02-16T01:22:53;97484.00;;;-6.95;45.38
77077;BME280;66003;52.286;104.306;2023-02-16T01:25:20;97481.84;;;-7.00;45.38
77077;BME280;66003;52.286;104.306;2023-02-16T01:27:47;97449.28;;;-6.94;45.00
77077;BME280;66003;52.286;104.306;2023-02-16T01:30:18;97484.38;;;-6.80;45.76
77077;BME280;66003;52.286;104.306;2023-02-16T01:32:46;97495.50;;;-6.61;44.92
77077;BME280;66003;52.286;104.306;2023-02-16T01:35:32;97440.31;;;-6.72;44.20
77077;BME280;66003;52.286;104.306;2023-02-16T01:37:58;97479.91;;;-6.51;43.96
77077;BME280;66003;52.286;104.306;2023-02-16T01:43:19;97490.84;;;-6.02;43.76
77077;BME280;66003;52.286;104.306;2023-02-16T01:45:58;97454.59;;;-6.31;43.74
77077;BME280;66003;52.286;104.306;2023-02-16T01:48:29;97488.81;;;-6.26;43.68
77077;BME280;66003;52.286;104.306;2023-02-16T01:51:12;97501.97;;;-6.10;43.57
77077;BME280;66003;52.286;104.306;2023-02-16T01:53:46;97476.69;;;-5.82;43.32
77077;BME280;66003;52.286;104.306;2023-02-16T01:56:29;97489.22;;;-5.42;42.95
77077;BME280;66003;52.286;104.306;2023-02-16T01:59:03;97487.44;;;-5.24;42.28
77077;BME280;66003;52.286;104.306;2023-02-16T02:01:43;97500.34;;;-4.96;41.86
77077;BME280;66003;52.286;104.306;2023-02-16T02:04:24;97440.13;;;-5.11;41.62
77077;BME280;66003;52.286;104.306;2023-02-16T02:13:13;97476.34;;;-4.40;40.39
77077;BME280;66003;52.286;104.306;2023-02-16T02:15:40;97411.59;;;-4.87;40.34
77077;BME280;66003;52.286;104.306;2023-02-16T02:18:06;97476.34;;;-4.40;40.32
77077;BME280;66003;52.286;104.306;2023-02-16T02:26:40;97481.94;;;-3.44;39.25
77077;BME280;66003;52.286;104.306;2023-02-16T02:29:30;97443.19;;;-3.24;38.21
77077;BME280;66003;52.286;104.306;2023-02-16T02:37:47;97466.69;;;-2.37;37.79
77077;BME280;66003;52.286;104.306;2023-02-16T02:46:04;97475.94;;;-2.65;36.91
77077;BME280;66003;52.286;104.306;2023-02-16T02:48:31;97478.59;;;-2.73;37.24
77077;BME280;66003;52.286;104.306;2023-02-16T02:57:17;97480.78;;;-3.34;38.65
77077;BME280;66003;52.286;104.306;2023-02-16T03:00:05;97491.06;;;-3.56;38.61
77077;BME280;66003;52.286;104.306;2023-02-16T03:02:54;97490.56;;;-3.60;39.05
77077;BME280;66003;52.286;104.306;2023-02-16T03:05:26;97466.72;;;-3.49;38.98
77077;BME280;66003;52.286;104.306;2023-02-16T03:07:59;97477.66;;;-3.13;38.85
77077;BME280;66003;52.286;104.306;2023-02-16T03:10:35;97466.66;;;-2.76;37.92
77077;BME280;66003;52.286;104.306;2023-02-16T03:13:30;97441.84;;;-2.41;37.03
77077;BME280;66003;52.286;104.306;2023-02-16T03:16:08;97433.47;;;-2.05;36.40
77077;BME280;66003;52.286;104.306;2023-02-16T03:18:36;97455.28;;;-1.59;35.82
77077;BME280;66003;52.286;104.306;2023-02-16T03:21:22;97462.78;;;-0.96;35.15
77077;BME280;66003;52.286;104.306;2023-02-16T03:24:08;97467.44;;;-0.54;34.48
77077;BME280;66003;52.286;104.306;2023-02-16T03:26:57;97432.94;;;-0.95;34.61
77077;BME280;66003;52.286;104.306;2023-02-16T03:29:44;97473.25;;;-1.11;35.84
77077;BME280;66003;52.286;104.306;2023-02-16T03:32:13;97479.25;;;-1.25;34.96
77077;BME280;66003;52.286;104.306;2023-02-16T03:34:40;97460.34;;;-1.35;35.57
77077;BME280;66003;52.286;104.306;2023-02-16T03:37:06;97477.44;;;-1.24;35.40
77077;BME280;66003;52.286;104.306;2023-02-16T03:39:32;97447.69;;;-1.31;35.24
77077;BME280;66003;52.286;104.306;2023-02-16T03:42:19;97456.25;;;-1.37;35.78
77077;BME280;66003;52.286;104.306;2023-02-16T03:44:47;97457.28;;;-1.24;35.78
77077;BME280;66003;52.286;104.306;2023-02-16T03:47:13;97469.50;;;-1.16;35.96
77077;BME280;66003;52.286;104.306;2023-02-16T03:49:40;97427.19;;;-1.51;36.20
77077;BME280;66003;52.286;104.306;2023-02-16T03:52:06;97473.13;;;-1.17;36.18
77077;BME280;66003;52.286;104.306;2023-02-16T03:54:32;97470.63;;;-1.11;35.93
77077;BME280;66003;52.286;104.306;2023-02-16T03:56:58;97458.34;;;-0.95;36.19
77077;BME280;66003;52.286;104.306;2023-02-16T03:59:24;97463.25;;;-0.78;36.63
77077;BME280;66003;52.286;104.306;2023-02-16T04:01:50;97465.72;;;-0.61;36.26
77077;BME280;66003;52.286;104.306;2023-02-16T04:04:16;97463.44;;;-0.50;36.58
77077;BME280;66003;52.286;104.306;2023-02-16T04:06:42;97464.41;;;-0.21;36.32
77077;BME280;66003;52.286;104.306;2023-02-16T04:09:09;97456.44;;;-0.13;35.92
77077;BME280;66003;52.286;104.306;2023-02-16T04:11:42;97454.97;;;-0.01;36.05
77077;BME280;66003;52.286;104.306;2023-02-16T04:14:27;97426.66;;;-0.20;35.75
77077;BME280;66003;52.286;104.306;2023-02-16T04:16:53;97451.91;;;-0.05;35.89
77077;BME280;66003;52.286;104.306;2023-02-16T04:19:20;97435.69;;;-0.08;35.73
77077;BME280;66003;52.286;104.306;2023-02-16T04:21:49;97395.59;;;-0.17;35.45
77077;BME280;66003;52.286;104.306;2023-02-16T04:24:17;97426.97;;;0.27;35.21
77077;BME280;66003;52.286;104.306;2023-02-16T04:26:44;97411.78;;;0.44;34.90
77077;BME280;66003;52.286;104.306;2023-02-16T04:29:10;97459.16;;;1.00;34.43
77077;BME280;66003;52.286;104.306;2023-02-16T04:31:36;97431.34;;;1.19;34.04
77077;BME280;66003;52.286;104.306;2023-02-16T04:34:02;97442.22;;;1.37;33.51
77077;BME280;66003;52.286;104.306;2023-02-16T04:36:29;97444.56;;;1.53;33.82
77077;BME280;66003;52.286;104.306;2023-02-16T04:38:56;97440.47;;;1.51;33.79
77077;BME280;66003;52.286;104.306;2023-02-16T04:41:22;97439.22;;;1.47;34.21
77077;BME280;66003;52.286;104.306;2023-02-16T04:43:48;97406.16;;;1.03;34.08
77077;BME280;66003;52.286;104.306;2023-02-16T04:46:14;97433.03;;;0.98;34.43
77077;BME280;66003;52.286;104.306;2023-02-16T04:48:40;97423.59;;;0.83;34.78
77077;BME280;66003;52.286;104.306;2023-02-16T04:51:06;97430.78;;;0.67;35.15
77077;BME280;66003;52.286;104.306;2023-02-16T04:53:32;97399.03;;;0.26;35.29
77077;BME280;66003;52.286;104.306;2023-02-16T04:55:58;97398.50;;;0.10;35.27
77077;BME280;66003;52.286;104.306;2023-02-16T04:58:24;97400.47;;;-0.14;36.17
77077;BME280;66003;52.286;104.306;2023-02-16T05:00:50;97416.06;;;-0.27;36.77
77077;BME280;66003;52.286;104.306;2023-02-16T05:03:16;97399.00;;;-0.52;37.36
77077;BME280;66003;52.286;104.306;2023-02-16T05:05:43;97432.13;;;-0.51;37.02
77077;BME280;66003;52.286;104.306;2023-02-16T05:08:09;97374.22;;;-0.94;36.78
77077;BME280;66003;52.286;104.306;2023-02-16T05:10:35;97425.34;;;-0.60;37.50
77077;BME280;66003;52.286;104.306;2023-02-16T05:13:01;97379.28;;;-0.92;36.83
77077;BME280;66003;52.286;104.306;2023-02-16T05:15:45;97421.72;;;-0.74;37.70
77077;BME280;66003;52.286;104.306;2023-02-16T05:18:11;97409.50;;;-0.96;36.87
77077;BME280;66003;52.286;104.306;2023-02-16T05:20:38;97406.97;;;-0.90;36.84
77077;BME280;66003;52.286;104.306;2023-02-16T05:23:22;97406.88;;;-0.96;37.25
77077;BME280;66003;52.286;104.306;2023-02-16T05:25:48;97370.41;;;-1.21;37.26
77077;BME280;66003;52.286;104.306;2023-02-16T05:28:15;97410.41;;;-0.89;37.45
77077;BME280;66003;52.286;104.306;2023-02-16T05:30:41;97401.63;;;-0.67;36.75
77077;BME280;66003;52.286;104.306;2023-02-16T05:33:07;97374.03;;;-0.63;36.45
77077;BME280;66003;52.286;104.306;2023-02-16T05:35:33;97379.59;;;-0.37;36.04
77077;BME280;66003;52.286;104.306;2023-02-16T05:37:59;97385.78;;;-0.23;35.60
77077;BME280;66003;52.286;104.306;2023-02-16T05:40:26;97375.63;;;-0.11;34.76
77077;BME280;66003;52.286;104.306;2023-02-16T05:42:53;97360.09;;;0.36;35.41
77077;BME280;66003;52.286;104.306;2023-02-16T05:45:19;97367.13;;;0.79;33.51
77077;BME280;66003;52.286;104.306;2023-02-16T05:47:45;97380.47;;;1.05;33.40
77077;BME280;66003;52.286;104.306;2023-02-16T05:50:11;97381.56;;;1.17;33.72
77077;BME280;66003;52.286;104.306;2023-02-16T05:52:37;97382.41;;;1.24;32.78
77077;BME280;66003;52.286;104.306;2023-02-16T05:55:04;97378.22;;;1.36;32.83
77077;BME280;66003;52.286;104.306;2023-02-16T05:57:30;97377.00;;;1.39;32.49
77077;BME280;66003;52.286;104.306;2023-02-16T05:59:59;97378.09;;;1.51;32.83
77077;BME280;66003;52.286;104.306;2023-02-16T06:02:25;97382.38;;;1.59;32.30
77077;BME280;66003;52.286;104.306;2023-02-16T06:04:51;97377.16;;;1.31;31.59
77077;BME280;66003;52.286;104.306;2023-02-16T06:07:18;97376.88;;;1.19;32.79
77077;BME280;66003;52.286;104.306;2023-02-16T06:09:44;97302.16;;;0.45;32.62
77077;BME280;66003;52.286;104.306;2023-02-16T06:12:10;97367.34;;;0.84;32.66
77077;BME280;66003;52.286;104.306;2023-02-16T06:14:36;97315.81;;;0.61;33.00
77077;BME280;66003;52.286;104.306;2023-02-16T06:17:02;97337.44;;;0.57;32.89
77077;BME280;66003;52.286;104.306;2023-02-16T06:19:28;97361.16;;;0.63;32.85
77077;BME280;66003;52.286;104.306;2023-02-16T06:21:55;97318.75;;;0.24;33.37
77077;BME280;66003;52.286;104.306;2023-02-16T06:24:21;97366.00;;;0.39;33.91
77077;BME280;66003;52.286;104.306;2023-02-16T06:26:47;97351.03;;;0.39;33.70
77077;BME280;66003;52.286;104.306;2023-02-16T06:29:13;97332.63;;;0.39;34.17
77077;BME280;66003;52.286;104.306;2023-02-16T06:31:39;97358.41;;;0.50;33.80
77077;BME280;66003;52.286;104.306;2023-02-16T06:34:06;97317.22;;;0.36;33.66
77077;BME280;66003;52.286;104.306;2023-02-16T06:36:32;97331.19;;;0.58;33.63
77077;BME280;66003;52.286;104.306;2023-02-16T06:38:58;97363.47;;;1.07;33.26
77077;BME280;66003;52.286;104.306;2023-02-16T06:41:25;97362.84;;;1.40;33.05
77077;BME280;66003;52.286;104.306;2023-02-16T06:44:04;97352.06;;;1.35;33.02
77077;BME280;66003;52.286;104.306;2023-02-16T06:46:31;97314.06;;;1.09;32.69
77077;BME280;66003;52.286;104.306;2023-02-16T06:48:58;97336.25;;;1.28;32.84
77077;BME280;66003;52.286;104.306;2023-02-16T06:51:24;97249.75;;;0.78;32.69
77077;BME280;66003;52.286;104.306;2023-02-16T06:53:50;97329.50;;;1.19;32.74
77077;BME280;66003;52.286;104.306;2023-02-16T06:56:17;97336.72;;;1.04;33.08
77077;BME280;66003;52.286;104.306;2023-02-16T06:58:43;97352.06;;;1.28;33.56
77077;BME280;66003;52.286;104.306;2023-02-16T07:01:09;97351.75;;;1.51;33.05
77077;BME280;66003;52.286;104.306;2023-02-16T07:03:35;97352.81;;;1.63;33.04
77077;BME280;66003;52.286;104.306;2023-02-16T07:06:02;97307.00;;;1.10;33.17
77077;BME280;66003;52.286;104.306;2023-02-16T07:08:28;97350.88;;;1.37;33.33
77077;BME280;66003;52.286;104.306;2023-02-16T07:10:54;97348.66;;;1.41;32.99
77077;BME280;66003;52.286;104.306;2023-02-16T07:13:20;97354.34;;;1.44;33.96
77077;BME280;66003;52.286;104.306;2023-02-16T07:15:46;97324.19;;;1.06;34.06
77077;BME280;66003;52.286;104.306;2023-02-16T07:18:12;97341.75;;;0.99;34.54
77077;BME280;66003;52.286;104.306;2023-02-16T07:20:38;97358.00;;;0.75;34.42
77077;BME280;66003;52.286;104.306;2023-02-16T07:23:04;97311.41;;;0.41;35.04
77077;BME280;66003;52.286;104.306;2023-02-16T07:25:31;97344.22;;;0.72;35.12
77077;BME280;66003;52.286;104.306;2023-02-16T07:27:58;97317.53;;;0.76;35.09
77077;BME280;66003;52.286;104.306;2023-02-16T07:30:24;97354.75;;;1.07;34.83
77077;BME280;66003;52.286;104.306;2023-02-16T07:32:50;97340.19;;;1.04;34.98
77077;BME280;66003;52.286;104.306;2023-02-16T07:35:16;97352.16;;;1.14;34.31
77077;BME280;66003;52.286;104.306;2023-02-16T07:37:42;97346.66;;;1.08;35.05
77077;BME280;66003;52.286;104.306;2023-02-16T07:40:09;97345.81;;;1.01;34.65
77077;BME280;66003;52.286;104.306;2023-02-16T07:42:35;97313.06;;;0.76;35.19
77077;BME280;66003;52.286;104.306;2023-02-16T07:45:01;97344.66;;;0.76;35.37
77077;BME280;66003;52.286;104.306;2023-02-16T07:47:30;97339.53;;;0.68;35.83
77077;BME280;66003;52.286;104.306;2023-02-16T07:49:56;97318.53;;;0.19;35.82
77077;BME280;66003;52.286;104.306;2023-02-16T07:52:22;97354.25;;;0.34;35.88
77077;BME280;66003;52.286;104.306;2023-02-16T07:54:53;97352.44;;;0.35;36.21
77077;BME280;66003;52.286;104.306;2023-02-16T07:57:19;97353.78;;;0.52;36.24
77077;BME280;66003;52.286;104.306;2023-02-16T07:59:45;97347.63;;;0.66;36.04
77077;BME280;66003;52.286;104.306;2023-02-16T08:02:18;97262.56;;;0.25;35.50
77077;BME280;66003;52.286;104.306;2023-02-16T08:04:48;97360.72;;;0.88;35.08
77077;BME280;66003;52.286;104.306;2023-02-16T08:07:15;97328.75;;;0.56;34.63
77077;BME280;66003;52.286;104.306;2023-02-16T08:09:42;97357.63;;;0.78;35.14
77077;BME280;66003;52.286;104.306;2023-02-16T08:12:09;97338.66;;;0.61;35.19
77077;BME280;66003;52.286;104.306;2023-02-16T08:14:35;97361.09;;;0.57;34.89
77077;BME280;66003;52.286;104.306;2023-02-16T08:17:02;97352.28;;;0.43;34.99
77077;BME280;66003;52.286;104.306;2023-02-16T08:19:29;97329.56;;;0.35;35.14
77077;BME280;66003;52.286;104.306;2023-02-16T08:21:57;97347.50;;;0.53;35.01
77077;BME280;66003;52.286;104.306;2023-02-16T08:24:24;97340.63;;;0.52;34.53
77077;BME280;66003;52.286;104.306;2023-02-16T08:26:51;97353.25;;;0.63;33.65
77077;BME280;66003;52.286;104.306;2023-02-16T08:29:19;97354.78;;;0.51;33.99
77077;BME280;66003;52.286;104.306;2023-02-16T08:31:46;97349.00;;;0.34;34.05
77077;BME280;66003;52.286;104.306;2023-02-16T08:34:14;97349.88;;;0.20;34.49
77077;BME280;66003;52.286;104.306;2023-02-16T08:36:42;97309.84;;;-0.03;33.59
77077;BME280;66003;52.286;104.306;2023-02-16T08:39:19;97320.59;;;-0.19;33.95
77077;BME280;66003;52.286;104.306;2023-02-16T08:41:47;97355.09;;;-0.22;33.42
77077;BME280;66003;52.286;104.306;2023-02-16T08:44:15;97354.69;;;-0.26;34.07
77077;BME280;66003;52.286;104.306;2023-02-16T08:46:43;97354.28;;;-0.23;33.33
77077;BME280;66003;52.286;104.306;2023-02-16T08:49:11;97359.75;;;-0.24;33.96
77077;BME280;66003;52.286;104.306;2023-02-16T08:51:43;97293.16;;;-0.74;33.64
77077;BME280;66003;52.286;104.306;2023-02-16T08:54:14;97353.09;;;-0.56;33.78
77077;BME280;66003;52.286;104.306;2023-02-16T08:56:41;97357.91;;;-0.60;33.80
77077;BME280;66003;52.286;104.306;2023-02-16T08:59:13;97355.50;;;-0.76;34.07
77077;BME280;66003;52.286;104.306;2023-02-16T09:01:39;97354.50;;;-0.90;33.45
77077;BME280;66003;52.286;104.306;2023-02-16T09:04:06;97325.75;;;-1.13;33.81
77077;BME280;66003;52.286;104.306;2023-02-16T09:06:36;97320.75;;;-1.37;33.86
77077;BME280;66003;52.286;104.306;2023-02-16T09:09:03;97295.88;;;-1.70;34.51
77077;BME280;66003;52.286;104.306;2023-02-16T09:11:29;97339.84;;;-1.43;35.22
77077;BME280;66003;52.286;104.306;2023-02-16T09:13:56;97343.31;;;-1.51;34.82
77077;BME280;66003;52.286;104.306;2023-02-16T09:16:23;97325.84;;;-1.73;34.63
77077;BME280;66003;52.286;104.306;2023-02-16T09:18:50;97361.03;;;-1.67;34.66
77077;BME280;66003;52.286;104.306;2023-02-16T09:21:20;97328.63;;;-1.89;34.93
77077;BME280;66003;52.286;104.306;2023-02-16T09:23:48;97364.47;;;-1.90;34.97
77077;BME280;66003;52.286;104.306;2023-02-16T09:26:17;97357.03;;;-2.01;35.14
77077;BME280;66003;52.286;104.306;2023-02-16T09:28:44;97325.88;;;-2.41;35.33
77077;BME280;66003;52.286;104.306;2023-02-16T09:31:19;97322.03;;;-2.53;35.37
77077;BME280;66003;52.286;104.306;2023-02-16T09:33:51;97317.50;;;-2.60;35.81
77077;BME280;66003;52.286;104.306;2023-02-16T09:36:17;97321.66;;;-2.81;35.93
77077;BME280;66003;52.286;104.306;2023-02-16T09:38:44;97367.47;;;-2.55;36.21
77077;BME280;66003;52.286;104.306;2023-02-16T09:47:10;97344.59;;;-2.83;37.40
77077;BME280;66003;52.286;104.306;2023-02-16T09:49:41;97370.91;;;-2.85;37.41
77077;BME280;66003;52.286;104.306;2023-02-16T09:54:58;97369.94;;;-2.92;37.57
77077;BME280;66003;52.286;104.306;2023-02-16T10:03:00;97345.38;;;-3.38;38.19
77077;BME280;66003;52.286;104.306;2023-02-16T10:09:02;97358.81;;;-3.74;39.24
77077;BME280;66003;52.286;104.306;2023-02-16T10:11:31;97360.94;;;-3.77;38.73
77077;BME280;66003;52.286;104.306;2023-02-16T10:17:37;97216.22;;;-5.04;39.34
77077;BME280;66003;52.286;104.306;2023-02-16T10:25:20;97329.50;;;-4.83;40.20
77077;BME280;66003;52.286;104.306;2023-02-16T10:28:00;97340.41;;;-4.87;40.62
77077;BME280;66003;52.286;104.306;2023-02-16T10:30:31;97382.50;;;-4.66;40.21
77077;BME280;66003;52.286;104.306;2023-02-16T10:33:29;97331.53;;;-5.02;40.79
77077;BME280;66003;52.286;104.306;2023-02-16T10:36:00;97338.69;;;-5.04;40.56
77077;BME280;66003;52.286;104.306;2023-02-16T10:38:42;97384.84;;;-4.97;41.54
77077;BME280;66003;52.286;104.306;2023-02-16T10:41:26;97347.91;;;-5.18;41.12
77077;BME280;66003;52.286;104.306;2023-02-16T10:46:30;97358.44;;;-5.28;41.77
77077;BME280;66003;52.286;104.306;2023-02-16T10:48:59;97381.63;;;-5.17;42.22
77077;BME280;66003;52.286;104.306;2023-02-16T10:51:36;97381.78;;;-5.18;41.71
77077;BME280;66003;52.286;104.306;2023-02-16T10:54:31;97386.66;;;-5.23;42.04
77077;BME280;66003;52.286;104.306;2023-02-16T10:57:19;97377.72;;;-5.47;42.50
77077;BME280;66003;52.286;104.306;2023-02-16T10:59:48;97386.50;;;-5.48;42.04
77077;BME280;66003;52.286;104.306;2023-02-16T11:04:58;97386.84;;;-5.68;43.63
77077;BME280;66003;52.286;104.306;2023-02-16T11:07:27;97377.28;;;-5.86;43.57
77077;BME280;66003;52.286;104.306;2023-02-16T11:09:56;97396.47;;;-5.87;43.73
77077;BME280;66003;52.286;104.306;2023-02-16T11:14:52;97354.59;;;-6.19;44.47
77077;BME280;66003;52.286;104.306;2023-02-16T11:17:21;97361.56;;;-6.20;44.36
77077;BME280;66003;52.286;104.306;2023-02-16T11:19:55;97399.84;;;-5.94;44.55
77077;BME280;66003;52.286;104.306;2023-02-16T11:22:27;97416.44;;;-5.95;44.89
77077;BME280;66003;52.286;104.306;2023-02-16T11:24:53;97397.63;;;-6.07;45.22
77077;BME280;66003;52.286;104.306;2023-02-16T11:27:22;97385.66;;;-6.17;45.25
77077;BME280;66003;52.286;104.306;2023-02-16T11:29:48;97421.56;;;-6.03;45.26
77077;BME280;66003;52.286;104.306;2023-02-16T11:32:17;97421.31;;;-6.10;45.15
77077;BME280;66003;52.286;104.306;2023-02-16T11:34:50;97381.56;;;-6.38;45.23
77077;BME280;66003;52.286;104.306;2023-02-16T11:37:27;97423.25;;;-6.12;45.95
77077;BME280;66003;52.286;104.306;2023-02-16T11:42:32;97427.63;;;-6.12;44.61
77077;BME280;66003;52.286;104.306;2023-02-16T11:45:01;97418.66;;;-6.18;45.39
77077;BME280;66003;52.286;104.306;2023-02-16T11:47:33;97417.44;;;-6.24;45.46
77077;BME280;66003;52.286;104.306;2023-02-16T11:50:18;97417.16;;;-6.21;45.97
77077;BME280;66003;52.286;104.306;2023-02-16T11:52:50;97411.22;;;-6.31;46.12
77077;BME280;66003;52.286;104.306;2023-02-16T11:55:30;97432.34;;;-6.16;45.74
77077;BME280;66003;52.286;104.306;2023-02-16T11:58:22;97424.81;;;-6.19;46.24
77077;BME280;66003;52.286;104.306;2023-02-16T12:03:49;97427.72;;;-6.22;45.98
77077;BME280;66003;52.286;104.306;2023-02-16T12:19:41;97383.84;;;-6.35;45.96
77077;BME280;66003;52.286;104.306;2023-02-16T12:22:41;97430.75;;;-6.09;46.07
77077;BME280;66003;52.286;104.306;2023-02-16T12:39:15;97447.56;;;-6.48;47.39
77077;BME280;66003;52.286;104.306;2023-02-16T12:44:54;97403.00;;;-6.81;47.23
77077;BME280;66003;52.286;104.306;2023-02-16T12:47:36;97400.56;;;-6.82;46.98
77077;BME280;66003;52.286;104.306;2023-02-16T12:50:27;97436.75;;;-6.71;47.70
77077;BME280;66003;52.286;104.306;2023-02-16T12:53:07;97403.25;;;-7.02;48.11
77077;BME280;66003;52.286;104.306;2023-02-16T12:56:00;97442.72;;;-6.88;46.81
77077;BME280;66003;52.286;104.306;2023-02-16T13:03:53;97451.19;;;-6.86;47.81
77077;BME280;66003;52.286;104.306;2023-02-16T13:07:15;97403.84;;;-7.17;48.06
77077;BME280;66003;52.286;104.306;2023-02-16T13:12:23;97453.53;;;-6.93;47.46
77077;BME280;66003;52.286;104.306;2023-02-16T13:14:44;97418.34;;;-7.15;48.15
77077;BME280;66003;52.286;104.306;2023-02-16T13:17:40;97399.41;;;-7.35;48.18
77077;BME280;66003;52.286;104.306;2023-02-16T13:20:14;97450.88;;;-7.11;48.61
77077;BME280;66003;52.286;104.306;2023-02-16T13:22:56;97419.09;;;-7.42;48.47
77077;BME280;66003;52.286;104.306;2023-02-16T13:25:40;97425.50;;;-7.36;48.29
77077;BME280;66003;52.286;104.306;2023-02-16T13:30:56;97458.16;;;-7.43;50.01
77077;BME280;66003;52.286;104.306;2023-02-16T13:39:08;97453.66;;;-7.51;49.34
77077;BME280;66003;52.286;104.306;2023-02-16T13:44:39;97455.19;;;-7.58;49.73
77077;BME280;66003;52.286;104.306;2023-02-16T13:47:13;97446.84;;;-7.61;49.45
77077;BME280;66003;52.286;104.306;2023-02-16T13:49:41;97424.91;;;-7.67;49.80
77077;BME280;66003;52.286;104.306;2023-02-16T13:52:36;97466.75;;;-7.43;49.43
77077;BME280;66003;52.286;104.306;2023-02-16T13:55:06;97467.59;;;-7.42;49.36
77077;BME280;66003;52.286;104.306;2023-02-16T14:00:31;97433.59;;;-7.49;47.95
77077;BME280;66003;52.286;104.306;2023-02-16T14:03:03;97468.94;;;-7.38;48.29
77077;BME280;66003;52.286;104.306;2023-02-16T14:05:36;97421.34;;;-7.76;47.85
77077;BME280;66003;52.286;104.306;2023-02-16T14:16:25;97474.03;;;-7.85;47.49
77077;BME280;66003;52.286;104.306;2023-02-16T14:18:56;97487.69;;;-7.83;47.48
77077;BME280;66003;52.286;104.306;2023-02-16T14:23:56;97475.00;;;-8.05;47.88
77077;BME280;66003;52.286;104.306;2023-02-16T14:26:23;97456.69;;;-8.32;47.34
77077;BME280;66003;52.286;104.306;2023-02-16T14:29:06;97478.91;;;-8.30;47.55
77077;BME280;66003;52.286;104.306;2023-02-16T14:31:46;97475.50;;;-8.40;47.79
77077;BME280;66003;52.286;104.306;2023-02-16T14:34:25;97482.97;;;-8.47;47.79
77077;BME280;66003;52.286;104.306;2023-02-16T14:39:36;97474.09;;;-8.63;48.43
77077;BME280;66003;52.286;104.306;2023-02-16T14:42:13;97483.66;;;-8.54;48.36
77077;BME280;66003;52.286;104.306;2023-02-16T14:56:14;97491.16;;;-8.91;48.26
77077;BME280;66003;52.286;104.306;2023-02-16T14:58:54;97501.06;;;-8.96;47.63
77077;BME280;66003;52.286;104.306;2023-02-16T15:01:22;97494.28;;;-9.18;48.86
77077;BME280;66003;52.286;104.306;2023-02-16T15:03:50;97483.44;;;-9.33;49.25
77077;BME280;66003;52.286;104.306;2023-02-16T15:06:21;97495.28;;;-9.30;48.69
77077;BME280;66003;52.286;104.306;2023-02-16T15:08:55;97494.81;;;-9.45;48.88
77077;BME280;66003;52.286;104.306;2023-02-16T15:11:30;97459.03;;;-9.81;49.80
77077;BME280;66003;52.286;104.306;2023-02-16T15:14:07;97509.94;;;-9.61;49.26
77077;BME280;66003;52.286;104.306;2023-02-16T15:16:40;97504.94;;;-9.53;48.71
77077;BME280;66003;52.286;104.306;2023-02-16T15:19:10;97495.13;;;-9.59;48.33
77077;BME280;66003;52.286;104.306;2023-02-16T15:21:40;97456.44;;;-9.81;48.60
77077;BME280;66003;52.286;104.306;2023-02-16T15:24:20;97376.22;;;-10.33;47.57
77077;BME280;66003;52.286;104.306;2023-02-16T15:26:54;97508.03;;;-9.80;48.99
77077;BME280;66003;52.286;104.306;2023-02-16T15:29:25;97465.75;;;-9.90;48.95
77077;BME280;66003;52.286;104.306;2023-02-16T15:31:52;97503.94;;;-9.62;48.97
77077;BME280;66003;52.286;104.306;2023-02-16T15:34:32;97507.56;;;-9.85;48.74
77077;BME280;66003;52.286;104.306;2023-02-16T15:37:00;97463.31;;;-9.92;47.39